Archival Weather

Basrah Intl

Basrah Intl, Iraq (ORMM)

Report from: Wednesday, September 28, 2022 5:00 AM UTC
Current time: Tuesday, July 16, 2024 9:46 AM UTC

Current weather – Weather history – Daily summaries
Weather forecast

Temperature24.0°C (75.2°F)
Dew point-5.0°C (23.0°F)
Winds 7 kts (3.6 m/s, 8.1 mph) West (270°)
Clouds Sky clear
Altimeter29.80 in.Hg (1009 mB)
Relative humidity14 %
Density altitude1,260 ft. (384 m)
Remarks Ceiling and visibility OK
No significant changes expected in the next two hours
Flight conditions Visual Meteorological Conditions
Raw dataORMM 280500Z 27007KT CAVOK 24/M05 Q1009 NOSIG
An error has occurred. This application may no longer respond until reloaded. Reload 🗙